Peru, Nebraska
Current Conditions -  °F | °C
As of 11:35 AM on Monday 22 Dec 2014 (Local Time) from KAFK Reporting Station
Light Rain Light Rain  
Wind Chill:   Ceiling: 400
Heat Index:   Visibility: 5mi
Dew Point:   Wind: 8mph
Humidity: 100%   Direction: 160°SSE
Pressure: 29.47"   Gusts: NA
Location:  40.47°N, 95.73°W
Report Text: KAFK 221735Z AUTO 16007KT 5SM -RA OVC004 06/06 A2947 RMK AO2 P0003 T00550055
Loading
Personal Weather Stations






























Interactive Weather Map New forecast layout! Learn more

10-Day Weather Forecast

Advertisements
Track Severe Weather on mobile